createdAt,value
2018-08-22T00:01:35.904Z,88.10
2018-08-22T00:04:04.818Z,88.00
2018-08-22T00:06:33.716Z,87.80
2018-08-22T00:09:02.976Z,87.70
2018-08-22T00:11:31.703Z,88.50
2018-08-22T00:14:00.443Z,88.20
2018-08-22T00:16:29.238Z,88.00
2018-08-22T00:18:57.895Z,88.50
2018-08-22T00:21:26.558Z,88.80
2018-08-22T00:23:55.255Z,89.10
2018-08-22T00:26:23.910Z,88.90
2018-08-22T00:28:52.703Z,88.90
2018-08-22T00:31:21.513Z,88.80
2018-08-22T00:33:50.228Z,89.00
2018-08-22T00:36:19.630Z,89.10
2018-08-22T00:38:48.242Z,89.20
2018-08-22T00:41:16.903Z,89.30
2018-08-22T00:43:45.954Z,89.50
2018-08-22T00:46:14.598Z,89.50
2018-08-22T00:48:48.885Z,89.00
2018-08-22T00:51:39.513Z,88.70
2018-08-22T00:54:08.594Z,88.60
2018-08-22T00:56:37.616Z,89.10
2018-08-22T00:59:06.691Z,89.20
2018-08-22T01:01:35.480Z,89.20
2018-08-22T01:04:04.358Z,89.00
2018-08-22T01:06:33.115Z,88.80
2018-08-22T01:09:03.647Z,88.70
2018-08-22T01:11:32.378Z,88.80
2018-08-22T01:14:01.085Z,89.10
2018-08-22T01:16:29.802Z,89.40
2018-08-22T01:18:58.576Z,89.60
2018-08-22T01:21:27.316Z,89.80
2018-08-22T01:23:56.041Z,89.40
2018-08-22T01:26:24.848Z,89.60
2018-08-22T01:28:53.436Z,89.80
2018-08-22T01:31:22.068Z,89.80
2018-08-22T01:33:50.692Z,89.60
2018-08-22T01:36:19.290Z,89.90
2018-08-22T01:38:47.885Z,90.10
2018-08-22T01:41:16.509Z,89.90
2018-08-22T01:43:45.115Z,89.60
2018-08-22T01:46:13.705Z,89.30
2018-08-22T01:48:42.366Z,89.50
2018-08-22T01:51:11.098Z,89.80
2018-08-22T01:53:39.769Z,89.70
2018-08-22T01:56:08.511Z,89.50
2018-08-22T01:58:37.223Z,89.50
2018-08-22T02:01:06.017Z,89.50
2018-08-22T02:03:34.763Z,89.30
2018-08-22T02:06:03.476Z,89.50
2018-08-22T02:08:32.112Z,89.20
2018-08-22T02:11:00.683Z,89.50
2018-08-22T02:13:29.255Z,89.80
2018-08-22T02:15:57.910Z,89.80
2018-08-22T02:18:26.603Z,89.80
2018-08-22T02:20:55.288Z,89.70
2018-08-22T02:23:24.008Z,89.50
2018-08-22T02:25:52.718Z,89.30
2018-08-22T02:28:21.368Z,89.10
2018-08-22T02:30:49.988Z,89.30
2018-08-22T02:33:18.567Z,89.80
2018-08-22T02:35:47.237Z,89.90
2018-08-22T02:38:21.195Z,90.20
2018-08-22T02:40:49.775Z,90.10
2018-08-22T02:43:18.375Z,90.10
2018-08-22T02:45:47.042Z,90.10
2018-08-22T02:48:16.090Z,89.90
2018-08-22T02:50:44.834Z,89.90
2018-08-22T02:53:13.516Z,89.80
2018-08-22T02:55:42.449Z,89.80
2018-08-22T02:58:11.342Z,89.90
2018-08-22T03:00:40.085Z,89.90
2018-08-22T03:03:08.805Z,89.70
2018-08-22T03:05:37.559Z,89.40
2018-08-22T03:08:06.365Z,90.10
2018-08-22T03:10:34.969Z,90.00
2018-08-22T03:13:03.575Z,90.30
2018-08-22T03:15:32.167Z,90.00
2018-08-22T03:18:00.897Z,89.60
2018-08-22T03:20:29.716Z,89.20
2018-08-22T03:22:58.485Z,89.00
2018-08-22T03:25:27.290Z,89.20
2018-08-22T03:27:55.963Z,90.00
2018-08-22T03:30:24.624Z,90.40
2018-08-22T03:32:53.297Z,90.30
2018-08-22T03:35:21.955Z,90.30
2018-08-22T03:37:50.596Z,90.00
2018-08-22T03:40:19.210Z,90.10
2018-08-22T03:42:47.830Z,90.40
2018-08-22T03:45:16.433Z,90.00
2018-08-22T03:47:45.172Z,90.20
2018-08-22T03:50:13.963Z,90.30
2018-08-22T03:52:42.686Z,90.60
2018-08-22T03:55:11.467Z,90.20
2018-08-22T03:57:40.797Z,90.10
2018-08-22T04:00:10.096Z,89.60
2018-08-22T04:02:38.933Z,89.20
2018-08-22T04:05:07.787Z,89.80
2018-08-22T04:07:36.482Z,89.70
2018-08-22T04:10:05.405Z,90.20
2018-08-22T04:12:34.055Z,90.20
2018-08-22T04:15:02.698Z,90.00
2018-08-22T04:17:37.171Z,89.60
2018-08-22T04:20:06.686Z,89.50
2018-08-22T04:22:37.405Z,89.50
2018-08-22T04:25:06.563Z,90.00
2018-08-22T04:27:35.834Z,90.20
2018-08-22T04:30:05.001Z,90.10
2018-08-22T04:32:33.606Z,90.00
2018-08-22T04:35:02.280Z,90.10
2018-08-22T04:37:30.991Z,90.50
2018-08-22T04:39:59.703Z,90.50
2018-08-22T04:42:28.320Z,90.20
2018-08-22T04:44:56.946Z,90.10
2018-08-22T04:47:25.576Z,90.00
2018-08-22T04:49:54.165Z,89.70
2018-08-22T04:52:23.028Z,89.70
2018-08-22T04:54:51.853Z,89.60
2018-08-22T04:57:20.481Z,89.00
2018-08-22T04:59:49.253Z,88.70
2018-08-22T05:02:17.881Z,88.50
2018-08-22T05:04:46.620Z,88.30
2018-08-22T05:07:15.255Z,88.10
2018-08-22T05:09:43.885Z,88.10
2018-08-22T05:12:12.561Z,87.40
2018-08-22T05:14:41.223Z,86.30
2018-08-22T05:17:09.929Z,85.80
2018-08-22T05:19:38.664Z,85.40
2018-08-22T05:22:07.418Z,84.90
2018-08-22T05:24:36.159Z,83.80
2018-08-22T05:27:04.874Z,83.80
2018-08-22T05:29:33.506Z,81.00
2018-08-22T05:32:02.130Z,79.60
2018-08-22T05:34:30.745Z,79.60
2018-08-22T05:36:59.518Z,79.30
2018-08-22T05:39:28.238Z,77.60
2018-08-22T05:41:57.328Z,78.00
2018-08-22T05:44:26.066Z,77.20
2018-08-22T05:46:54.883Z,77.30
2018-08-22T05:49:23.587Z,77.40
2018-08-22T05:51:52.373Z,76.10
2018-08-22T05:54:21.177Z,76.70
2018-08-22T05:56:49.918Z,76.30
2018-08-22T05:59:18.564Z,75.50
2018-08-22T06:01:47.250Z,74.30
2018-08-22T06:04:15.892Z,74.10
2018-08-22T06:06:44.566Z,74.10
2018-08-22T06:09:13.591Z,73.80
2018-08-22T06:11:43.194Z,72.10
2018-08-22T06:14:12.319Z,72.20
2018-08-22T06:16:41.051Z,71.50
2018-08-22T06:19:09.925Z,71.70
2018-08-22T06:21:38.659Z,71.10
2018-08-22T06:24:07.438Z,69.60
2018-08-22T06:26:36.117Z,69.90
2018-08-22T06:29:04.781Z,69.70
2018-08-22T06:31:33.474Z,68.90
2018-08-22T06:34:02.229Z,68.60
2018-08-22T06:36:31.000Z,67.00
2018-08-22T06:39:00.338Z,67.40
2018-08-22T06:41:29.573Z,67.30
2018-08-22T06:43:58.396Z,67.70
2018-08-22T06:46:27.357Z,66.80
2018-08-22T06:48:56.134Z,66.90
2018-08-22T06:51:28.531Z,66.60
2018-08-22T06:53:57.343Z,67.70
2018-08-22T06:56:26.475Z,68.20
2018-08-22T06:58:55.798Z,67.00
2018-08-22T07:01:24.484Z,66.00
2018-08-22T07:03:53.683Z,67.00
2018-08-22T07:06:22.302Z,65.10
2018-08-22T07:08:50.924Z,63.30
2018-08-22T07:11:19.634Z,64.70
2018-08-22T07:13:48.399Z,65.90
2018-08-22T07:16:17.207Z,63.80
2018-08-22T07:18:46.059Z,65.40
2018-08-22T07:21:14.862Z,63.20
2018-08-22T07:23:43.643Z,61.80
2018-08-22T07:26:12.747Z,61.70
2018-08-22T07:28:41.511Z,60.20
2018-08-22T07:31:10.329Z,59.10
2018-08-22T07:33:39.094Z,58.20
2018-08-22T07:36:08.419Z,58.20
2018-08-22T07:38:37.196Z,56.40
2018-08-22T07:41:07.238Z,54.30
2018-08-22T07:43:36.139Z,54.60
2018-08-22T07:46:05.680Z,53.70
2018-08-22T07:48:34.986Z,51.80
2018-08-22T07:51:03.816Z,48.40
2018-08-22T07:53:33.242Z,48.80
2018-08-22T07:56:01.985Z,47.40
2018-08-22T07:58:30.733Z,46.30
2018-08-22T08:00:59.458Z,48.00
2018-08-22T08:03:28.233Z,46.70
2018-08-22T08:05:57.684Z,47.00
2018-08-22T08:08:26.426Z,45.60
2018-08-22T08:10:55.210Z,44.60
2018-08-22T08:13:28.851Z,45.50
2018-08-22T08:15:58.391Z,43.50
2018-08-22T08:18:27.423Z,41.70
2018-08-22T08:20:56.143Z,39.60
2018-08-22T08:23:24.823Z,39.40
2018-08-22T08:25:53.556Z,36.90
2018-08-22T08:28:22.291Z,36.50
2018-08-22T08:30:51.032Z,36.10
2018-08-22T08:33:19.749Z,36.10
2018-08-22T08:35:48.529Z,36.10
2018-08-22T08:38:17.214Z,35.90
2018-08-22T08:40:45.960Z,34.70
2018-08-22T08:43:14.688Z,34.20
2018-08-22T08:45:43.449Z,34.20
2018-08-22T08:48:12.072Z,31.50
2018-08-22T08:50:41.638Z,33.20
2018-08-22T08:53:10.336Z,32.40
2018-08-22T08:55:38.971Z,32.40
2018-08-22T08:58:08.359Z,30.10
2018-08-22T09:00:36.963Z,31.00
2018-08-22T09:03:05.598Z,30.50
2018-08-22T09:05:34.258Z,29.10
2018-08-22T09:08:02.978Z,30.10
2018-08-22T09:10:32.204Z,29.90
2018-08-22T09:13:00.868Z,30.60
2018-08-22T09:15:29.581Z,30.40
2018-08-22T09:17:58.206Z,29.10
2018-08-22T09:20:26.876Z,27.90
2018-08-22T09:22:55.545Z,27.00
2018-08-22T09:25:24.273Z,27.50
2018-08-22T09:27:53.066Z,27.40
2018-08-22T09:30:21.786Z,27.80
2018-08-22T09:32:50.528Z,27.00
2018-08-22T09:35:19.283Z,25.60
2018-08-22T09:37:48.045Z,26.10
2018-08-22T09:40:16.790Z,27.00
2018-08-22T09:42:45.573Z,26.90
2018-08-22T09:45:14.297Z,27.30
2018-08-22T09:47:43.896Z,27.50
2018-08-22T09:50:12.775Z,26.80
2018-08-22T09:52:41.539Z,26.00
2018-08-22T09:55:10.238Z,26.60
2018-08-22T09:57:38.869Z,25.90
2018-08-22T10:00:12.426Z,25.70
2018-08-22T10:02:41.045Z,25.60
2018-08-22T10:05:09.686Z,25.50
2018-08-22T10:07:38.297Z,25.70
2018-08-22T10:10:06.957Z,24.90
2018-08-22T10:12:35.636Z,25.30
2018-08-22T10:15:04.409Z,25.00
2018-08-22T10:17:33.086Z,25.10
2018-08-22T10:20:01.718Z,24.70
2018-08-22T10:22:30.326Z,23.80
2018-08-22T10:24:59.291Z,24.40
2018-08-22T10:27:27.919Z,24.10
2018-08-22T10:29:56.526Z,23.80
2018-08-22T10:32:25.152Z,23.70
2018-08-22T10:34:53.866Z,24.20
2018-08-22T10:37:22.754Z,24.40
2018-08-22T10:39:51.495Z,23.20
2018-08-22T10:42:20.401Z,23.00
2018-08-22T10:44:49.276Z,23.00
2018-08-22T10:47:17.944Z,22.50
2018-08-22T10:49:46.691Z,22.50
2018-08-22T10:52:15.845Z,22.60
2018-08-22T10:54:44.612Z,23.10
2018-08-22T10:57:13.367Z,22.70
2018-08-22T10:59:42.101Z,23.00
2018-08-22T11:02:10.864Z,21.90
2018-08-22T11:04:40.192Z,21.60
2018-08-22T11:07:08.820Z,22.10
2018-08-22T11:09:37.448Z,22.90
2018-08-22T11:12:06.082Z,23.00
2018-08-22T11:14:34.858Z,21.40
2018-08-22T11:17:03.534Z,21.20
2018-08-22T11:19:32.206Z,20.90
2018-08-22T11:22:17.659Z,20.20
2018-08-22T11:25:03.447Z,19.90
2018-08-22T11:27:48.844Z,19.60
2018-08-22T11:30:34.480Z,19.90
2018-08-22T11:33:19.876Z,17.40
2018-08-22T11:35:46.743Z,17.10
2018-08-22T11:38:15.536Z,19.40
2018-08-22T11:40:44.228Z,21.20
2018-08-22T11:43:12.921Z,19.50
2018-08-22T11:45:41.777Z,20.30
2018-08-22T11:48:10.967Z,20.00
2018-08-22T11:50:39.834Z,20.70
2018-08-22T11:53:08.625Z,21.70
2018-08-22T11:55:37.961Z,22.70
2018-08-22T11:58:06.726Z,22.70
2018-08-22T12:00:35.760Z,21.50
2018-08-22T12:03:04.461Z,20.30
2018-08-22T12:05:33.131Z,19.80
2018-08-22T12:08:01.831Z,19.60
2018-08-22T12:10:31.185Z,19.30
2018-08-22T12:13:02.326Z,19.70
2018-08-22T12:15:31.432Z,20.20
2018-08-22T12:18:00.067Z,20.70
2018-08-22T12:20:29.159Z,20.70
2018-08-22T12:22:58.796Z,19.30
2018-08-22T12:25:28.680Z,18.90
2018-08-22T12:27:57.470Z,20.00
2018-08-22T12:30:26.127Z,19.40
2018-08-22T12:32:55.322Z,19.60
2018-08-22T12:35:23.999Z,18.80
2018-08-22T12:37:52.769Z,18.70
2018-08-22T12:40:21.432Z,19.20
2018-08-22T12:42:50.131Z,20.20
2018-08-22T12:45:19.230Z,19.40
2018-08-22T12:47:47.930Z,19.60
2018-08-22T12:50:16.858Z,19.80
2018-08-22T12:52:45.594Z,20.20
2018-08-22T12:55:14.344Z,18.80
2018-08-22T12:57:43.140Z,19.60
2018-08-22T13:00:11.987Z,18.30
2018-08-22T13:02:40.759Z,18.80
2018-08-22T13:05:09.639Z,18.20
2018-08-22T13:07:38.457Z,18.10
2018-08-22T13:10:07.387Z,18.70
2018-08-22T13:12:36.374Z,18.10
2018-08-22T13:15:06.339Z,17.10
2018-08-22T13:17:35.520Z,18.80
2018-08-22T13:20:04.849Z,18.00
2018-08-22T13:22:33.751Z,17.30
2018-08-22T13:25:02.999Z,17.90
2018-08-22T13:27:31.884Z,17.20
2018-08-22T13:30:00.704Z,17.40
2018-08-22T13:32:29.988Z,18.60
2018-08-22T13:34:58.805Z,20.50
2018-08-22T13:37:27.642Z,24.80
2018-08-22T13:39:56.558Z,26.60
2018-08-22T13:42:25.639Z,26.50
2018-08-22T13:44:54.323Z,26.30
2018-08-22T13:47:23.006Z,26.50
2018-08-22T13:49:51.699Z,27.20
2018-08-22T13:52:20.546Z,26.60
2018-08-22T13:54:49.519Z,25.80
2018-08-22T13:57:18.417Z,24.90
2018-08-22T13:59:47.167Z,24.60
2018-08-22T14:02:16.599Z,23.40
2018-08-22T14:04:45.644Z,23.10
2018-08-22T14:07:14.289Z,23.90
2018-08-22T14:09:42.965Z,24.50
2018-08-22T14:12:12.082Z,25.20
2018-08-22T14:14:40.816Z,31.20
2018-08-22T14:17:10.107Z,39.30
2018-08-22T14:19:38.972Z,44.60
2018-08-22T14:22:07.634Z,45.90
2018-08-22T14:24:36.352Z,50.40
2018-08-22T14:27:05.240Z,50.00
2018-08-22T14:29:33.908Z,48.30
2018-08-22T14:32:02.589Z,46.90
2018-08-22T14:34:31.334Z,47.60
2018-08-22T14:36:59.999Z,48.10
2018-08-22T14:39:28.835Z,50.90
2018-08-22T14:41:57.567Z,52.50
2018-08-22T14:44:26.397Z,54.30
2018-08-22T14:46:55.002Z,57.20
2018-08-22T14:49:23.632Z,59.10
2018-08-22T14:51:52.328Z,61.40
2018-08-22T14:54:21.120Z,64.00
2018-08-22T14:56:50.478Z,65.60
2018-08-22T14:59:19.094Z,63.80
2018-08-22T15:01:47.845Z,61.50
2018-08-22T15:04:17.132Z,62.40
2018-08-22T15:06:45.896Z,63.40
2018-08-22T15:09:19.415Z,64.10
2018-08-22T15:11:49.198Z,61.30
2018-08-22T15:14:19.018Z,59.20
2018-08-22T15:16:47.703Z,59.40
2018-08-22T15:19:16.490Z,62.00
2018-08-22T15:21:45.250Z,61.00
2018-08-22T15:24:14.003Z,59.30
2018-08-22T15:26:42.849Z,58.70
2018-08-22T15:29:11.488Z,58.80
2018-08-22T15:31:40.163Z,58.70
2018-08-22T15:34:09.180Z,62.60
2018-08-22T15:36:37.893Z,61.20
2018-08-22T15:39:10.363Z,63.50
2018-08-22T15:41:39.923Z,68.00
2018-08-22T15:44:08.704Z,67.20
2018-08-22T15:46:37.516Z,69.70
2018-08-22T15:49:06.243Z,68.10
2018-08-22T15:51:35.377Z,69.30
2018-08-22T15:54:13.206Z,70.20
2018-08-22T15:56:42.089Z,72.90
2018-08-22T15:59:12.070Z,77.50
2018-08-22T16:01:40.871Z,79.80
2018-08-22T16:04:10.078Z,77.20
2018-08-22T16:06:38.898Z,74.60
2018-08-22T16:09:15.670Z,76.50
2018-08-22T16:11:45.185Z,76.90
2018-08-22T16:14:14.061Z,77.60
2018-08-22T16:16:42.884Z,75.50
2018-08-22T16:19:12.744Z,78.70
2018-08-22T16:21:41.494Z,77.50
2018-08-22T16:24:10.287Z,79.30
2018-08-22T16:26:39.069Z,81.10
2018-08-22T16:29:07.795Z,80.30
2018-08-22T16:31:42.149Z,76.60
2018-08-22T16:34:11.561Z,73.80
2018-08-22T16:36:40.371Z,74.40
2018-08-22T16:39:09.861Z,76.60
2018-08-22T16:41:38.806Z,79.00
2018-08-22T16:44:09.244Z,79.60
2018-08-22T16:46:38.116Z,79.70
2018-08-22T16:49:07.348Z,80.00
2018-08-22T16:51:36.038Z,80.70
2018-08-22T16:54:09.426Z,80.40
2018-08-22T16:56:38.311Z,79.30
2018-08-22T16:59:10.154Z,79.50
2018-08-22T17:01:41.587Z,78.20
2018-08-22T17:04:10.413Z,76.90
2018-08-22T17:06:39.288Z,77.30
2018-08-22T17:09:09.853Z,78.90
2018-08-22T17:11:39.049Z,78.50
2018-08-22T17:14:07.912Z,79.10
2018-08-22T17:16:36.569Z,80.00
2018-08-22T17:19:05.473Z,80.40
2018-08-22T17:21:34.716Z,78.50
2018-08-22T17:24:03.361Z,76.70
2018-08-22T17:26:32.018Z,77.00
2018-08-22T17:29:01.181Z,78.30
2018-08-22T17:31:30.300Z,80.50
2018-08-22T17:34:01.378Z,78.60
2018-08-22T17:36:30.046Z,72.40
2018-08-22T17:38:59.880Z,78.80
2018-08-22T17:41:29.650Z,80.10
2018-08-22T17:44:04.038Z,81.30
2018-08-22T17:46:36.609Z,81.80
2018-08-22T17:49:05.491Z,82.90
2018-08-22T17:52:37.283Z,84.10
2018-08-22T17:55:06.544Z,83.60
2018-08-22T17:57:35.292Z,84.30
2018-08-22T18:00:04.271Z,84.80
2018-08-22T18:02:32.986Z,85.00
2018-08-22T18:05:02.948Z,85.00
2018-08-22T18:07:31.623Z,84.70
2018-08-22T18:10:02.193Z,84.70
2018-08-22T18:12:31.044Z,84.80
2018-08-22T18:15:01.761Z,85.00
2018-08-22T18:17:30.561Z,84.60
2018-08-22T18:19:59.635Z,83.30
2018-08-22T18:22:33.120Z,82.80
2018-08-22T18:25:01.927Z,84.20
2018-08-22T18:27:30.660Z,83.60
2018-08-22T18:29:59.355Z,83.70
2018-08-22T18:32:28.048Z,83.20
2018-08-22T18:35:10.058Z,83.40
2018-08-22T18:37:39.469Z,84.00
2018-08-22T18:40:22.641Z,84.40
2018-08-22T18:42:57.057Z,85.50
2018-08-22T18:45:26.326Z,86.20
2018-08-22T18:47:55.018Z,86.90
2018-08-22T18:50:23.912Z,87.00
2018-08-22T18:53:00.506Z,87.20
2018-08-22T18:55:33.578Z,87.20
2018-08-22T18:58:04.316Z,87.20
2018-08-22T19:00:37.098Z,87.30
2018-08-22T19:03:05.927Z,86.90
2018-08-22T19:05:35.992Z,87.30
2018-08-22T19:08:13.841Z,87.40
2018-08-22T19:10:45.956Z,87.20
2018-08-22T19:13:17.962Z,86.50
2018-08-22T19:15:50.784Z,87.10
2018-08-22T19:18:19.509Z,86.80
2018-08-22T19:20:49.284Z,86.60
2018-08-22T19:23:17.969Z,87.20
2018-08-22T19:25:48.626Z,86.90
2018-08-22T19:28:18.307Z,86.80
2018-08-22T19:30:47.436Z,87.00
2018-08-22T19:33:20.182Z,86.60
2018-08-22T19:35:49.051Z,86.40
2018-08-22T19:38:20.126Z,85.80
2018-08-22T19:40:48.928Z,85.70
2018-08-22T19:43:17.682Z,85.60
2018-08-22T19:45:46.464Z,85.20
2018-08-22T19:48:15.099Z,85.60
2018-08-22T19:50:43.764Z,85.00
2018-08-22T19:53:13.364Z,84.80
2018-08-22T19:55:42.107Z,84.70
2018-08-22T19:58:11.454Z,84.80
2018-08-22T20:00:40.284Z,85.00
2018-08-22T20:03:09.237Z,85.30
2018-08-22T20:05:52.670Z,85.20
2018-08-22T20:08:27.016Z,85.40
2018-08-22T20:10:57.088Z,85.40
2018-08-22T20:13:37.763Z,85.30
2018-08-22T20:16:06.787Z,85.60
2018-08-22T20:18:36.285Z,85.60
2018-08-22T20:21:05.214Z,84.70
2018-08-22T20:23:34.041Z,84.20
2018-08-22T20:26:03.239Z,84.00
2018-08-22T20:28:33.292Z,85.20
2018-08-22T20:31:06.767Z,85.60
2018-08-22T20:33:36.162Z,85.80
2018-08-22T20:36:05.646Z,86.10
2018-08-22T20:38:34.856Z,86.00
2018-08-22T20:41:08.619Z,85.90
2018-08-22T20:43:37.459Z,86.40
2018-08-22T20:46:06.342Z,86.60
2018-08-22T20:48:36.172Z,86.90
2018-08-22T20:51:05.044Z,87.80
2018-08-22T20:53:33.782Z,88.50
2018-08-22T20:56:02.676Z,89.30
2018-08-22T20:58:31.446Z,89.90
2018-08-22T21:01:00.679Z,90.10
2018-08-22T21:03:29.458Z,90.30
2018-08-22T21:05:58.998Z,90.30
2018-08-22T21:08:28.782Z,90.20
2018-08-22T21:10:57.507Z,90.20
2018-08-22T21:13:28.658Z,90.40
2018-08-22T21:15:57.921Z,90.30
2018-08-22T21:18:26.903Z,89.90
2018-08-22T21:20:56.344Z,89.30
2018-08-22T21:23:25.913Z,88.80
2018-08-22T21:25:54.736Z,88.50
2018-08-22T21:28:29.818Z,88.60
2018-08-22T21:30:59.818Z,88.70
2018-08-22T21:33:29.685Z,88.70
2018-08-22T21:35:58.484Z,88.50
2018-08-22T21:38:27.498Z,88.80
2018-08-22T21:40:56.225Z,89.70
2018-08-22T21:43:25.006Z,89.80
2018-08-22T21:45:53.637Z,89.80
2018-08-22T21:48:25.964Z,90.60
2018-08-22T21:50:54.695Z,90.70
2018-08-22T21:53:23.978Z,90.80
2018-08-22T21:55:53.300Z,90.60
2018-08-22T21:58:22.172Z,90.80
2018-08-22T22:00:50.833Z,90.80
2018-08-22T22:03:25.831Z,91.00
2018-08-22T22:06:01.009Z,90.60
2018-08-22T22:08:29.898Z,89.90
2018-08-22T22:11:04.000Z,89.80
2018-08-22T22:13:32.956Z,89.70
2018-08-22T22:16:04.172Z,89.50
2018-08-22T22:18:34.037Z,89.40
2018-08-22T22:21:12.936Z,88.50
2018-08-22T22:23:47.842Z,88.40
2018-08-22T22:26:18.425Z,88.70
2018-08-22T22:28:47.140Z,88.90
2018-08-22T22:31:17.154Z,89.10
2018-08-22T22:33:57.265Z,88.90
2018-08-22T22:36:26.693Z,88.80
2018-08-22T22:38:55.380Z,89.20
2018-08-22T22:41:27.798Z,89.30
2018-08-22T22:43:56.610Z,89.60
2018-08-22T22:46:25.415Z,89.90
2018-08-22T22:48:54.306Z,90.20
2018-08-22T22:51:23.221Z,90.50
2018-08-22T22:53:52.061Z,90.50
2018-08-22T22:56:20.948Z,90.60
2018-08-22T22:58:49.673Z,90.40
2018-08-22T23:01:18.436Z,91.10
2018-08-22T23:03:47.256Z,90.30
2018-08-22T23:06:16.085Z,90.50
2018-08-22T23:08:45.721Z,90.60
2018-08-22T23:11:14.547Z,90.70
2018-08-22T23:13:43.330Z,90.30
2018-08-22T23:16:12.128Z,90.40
2018-08-22T23:18:40.943Z,90.50
2018-08-22T23:21:09.710Z,90.20
2018-08-22T23:23:38.771Z,90.50
2018-08-22T23:26:18.922Z,90.40
2018-08-22T23:28:47.746Z,90.30
2018-08-22T23:31:19.036Z,90.60
2018-08-22T23:33:47.955Z,91.00
2018-08-22T23:36:16.747Z,90.90
2018-08-22T23:38:45.527Z,90.60
2018-08-22T23:41:14.230Z,91.60
2018-08-22T23:43:50.514Z,91.10
2018-08-22T23:46:19.434Z,90.80
2018-08-22T23:48:55.167Z,90.80
2018-08-22T23:51:23.960Z,91.00
2018-08-22T23:53:56.322Z,91.70
2018-08-22T23:56:26.172Z,91.20
2018-08-22T23:58:55.601Z,91.30
